createdAt,value
2022-09-20T00:01:36.046Z,1.90
2022-09-20T00:04:08.565Z,2.93
2022-09-20T00:06:37.275Z,2.10
2022-09-20T00:09:06.773Z,1.67
2022-09-20T00:11:36.844Z,2.00
2022-09-20T00:14:10.558Z,3.60
2022-09-20T00:16:41.928Z,1.60
2022-09-20T00:22:53.257Z,2.80
2022-09-20T00:25:22.711Z,1.90
2022-09-20T00:27:51.305Z,2.60
2022-09-20T00:30:19.949Z,1.60
2022-09-20T00:32:48.491Z,1.87
2022-09-20T00:35:16.563Z,5.27
2022-09-20T00:37:45.752Z,2.60
2022-09-20T00:40:20.652Z,5.93
2022-09-20T00:42:49.748Z,1.90
2022-09-20T00:45:23.554Z,2.00
2022-09-20T00:47:58.089Z,1.47
2022-09-20T00:50:35.227Z,2.10
2022-09-20T00:53:08.780Z,3.67
2022-09-20T00:55:42.290Z,1.97
2022-09-20T00:58:11.742Z,4.60
2022-09-20T01:00:41.662Z,5.43
2022-09-20T01:03:13.036Z,2.57
2022-09-20T01:05:43.794Z,1.57
2022-09-20T01:08:13.562Z,2.40
2022-09-20T01:10:44.081Z,3.00
2022-09-20T01:13:12.879Z,3.20
2022-09-20T01:15:43.861Z,3.63
2022-09-20T01:18:13.838Z,3.13
2022-09-20T01:20:44.440Z,4.37
2022-09-20T01:23:37.459Z,4.37
2022-09-20T01:26:37.933Z,3.17
2022-09-20T01:29:19.784Z,1.93
2022-09-20T01:31:54.246Z,1.50
2022-09-20T01:34:28.765Z,2.07
2022-09-20T01:37:05.535Z,4.17
2022-09-20T01:39:41.756Z,3.90
2022-09-20T01:42:12.407Z,3.00
2022-09-20T01:44:50.360Z,4.80
2022-09-20T01:47:30.562Z,1.63
2022-09-20T01:50:09.074Z,2.37
2022-09-20T01:53:09.976Z,2.00
2022-09-20T01:55:55.584Z,3.63
2022-09-20T01:59:12.754Z,2.33
2022-09-20T02:02:28.924Z,3.27
2022-09-20T02:05:30.703Z,1.50
2022-09-20T02:08:16.419Z,3.80
2022-09-20T02:11:08.913Z,2.67
2022-09-20T02:13:52.440Z,3.37
2022-09-20T02:16:45.252Z,1.50
2022-09-20T02:19:34.498Z,4.20
2022-09-20T02:22:20.695Z,2.00
2022-09-20T02:25:05.680Z,2.30
2022-09-20T02:27:42.608Z,2.53
2022-09-20T02:30:23.806Z,3.60
2022-09-20T02:33:14.489Z,2.93
2022-09-20T02:35:53.657Z,4.37
2022-09-20T02:38:38.587Z,2.83
2022-09-20T02:41:40.667Z,2.77
2022-09-20T02:44:20.388Z,4.63
2022-09-20T02:46:56.265Z,4.57
2022-09-20T02:49:35.177Z,4.60
2022-09-20T02:52:16.803Z,2.20
2022-09-20T02:54:55.807Z,1.80
2022-09-20T02:57:34.159Z,1.93
2022-09-20T03:00:06.696Z,3.40
2022-09-20T03:02:51.560Z,2.23
2022-09-20T03:05:25.535Z,1.87
2022-09-20T03:08:23.123Z,7.20
2022-09-20T03:10:56.364Z,3.10
2022-09-20T03:13:37.375Z,1.50
2022-09-20T03:16:14.563Z,2.53
2022-09-20T03:18:50.533Z,2.10
2022-09-20T03:21:34.384Z,1.80
2022-09-20T03:24:14.928Z,1.97
2022-09-20T03:26:56.808Z,2.03
2022-09-20T03:29:39.860Z,2.00
2022-09-20T03:32:23.320Z,3.03
2022-09-20T03:35:06.763Z,3.47
2022-09-20T03:37:51.612Z,1.63
2022-09-20T03:40:39.883Z,5.17
2022-09-20T03:43:23.508Z,2.47
2022-09-20T03:46:07.820Z,5.03
2022-09-20T03:49:06.807Z,3.83
2022-09-20T03:51:41.464Z,1.57
2022-09-20T03:54:39.853Z,2.03
2022-09-20T03:57:49.881Z,2.00
2022-09-20T04:00:26.156Z,3.43
2022-09-20T04:03:14.630Z,2.40
2022-09-20T04:05:52.880Z,2.40
2022-09-20T04:08:40.030Z,3.00
2022-09-20T04:11:18.245Z,8.00
2022-09-20T04:13:55.864Z,2.00
2022-09-20T04:16:33.931Z,5.20
2022-09-20T04:19:13.042Z,1.90
2022-09-20T04:21:48.721Z,3.07
2022-09-20T04:24:24.646Z,2.60
2022-09-20T04:26:58.415Z,3.27
2022-09-20T04:29:36.521Z,3.00
2022-09-20T04:32:15.488Z,3.50
2022-09-20T04:35:07.719Z,2.87
2022-09-20T04:37:39.966Z,1.77
2022-09-20T04:40:23.841Z,2.93
2022-09-20T04:43:18.979Z,2.10
2022-09-20T04:46:20.275Z,2.70
2022-09-20T04:49:34.029Z,2.57
2022-09-20T04:52:28.608Z,2.67
2022-09-20T04:55:31.135Z,5.87
2022-09-20T04:58:36.763Z,5.37
2022-09-20T05:01:45.937Z,5.33
2022-09-20T05:04:49.959Z,3.70
2022-09-20T05:07:49.964Z,4.00
2022-09-20T05:10:48.082Z,4.23
2022-09-20T05:13:29.115Z,4.00
2022-09-20T05:16:02.822Z,4.97
2022-09-20T05:19:12.529Z,7.07
2022-09-20T05:22:24.847Z,5.70
2022-09-20T05:25:24.498Z,8.13
2022-09-20T05:27:58.436Z,6.10
2022-09-20T05:30:38.244Z,4.43
2022-09-20T05:33:21.529Z,6.50
2022-09-20T05:36:02.389Z,7.23
2022-09-20T05:38:42.965Z,5.97
2022-09-20T05:41:24.207Z,5.40
2022-09-20T05:44:00.350Z,4.10
2022-09-20T05:46:37.435Z,6.17
2022-09-20T05:49:19.165Z,4.00
2022-09-20T05:52:02.856Z,7.37
2022-09-20T05:55:03.770Z,5.93
2022-09-20T05:57:48.728Z,6.17
2022-09-20T06:00:20.689Z,3.40
2022-09-20T06:02:55.849Z,4.77
2022-09-20T06:05:35.374Z,3.97
2022-09-20T06:08:23.520Z,4.87
2022-09-20T06:11:03.868Z,6.40
2022-09-20T06:13:50.079Z,5.03
2022-09-20T06:16:29.518Z,5.47
2022-09-20T06:19:06.939Z,6.20
2022-09-20T06:21:45.960Z,4.37
2022-09-20T06:24:25.345Z,6.73
2022-09-20T06:26:57.131Z,7.30
2022-09-20T06:29:32.039Z,6.83
2022-09-20T06:32:00.687Z,7.67
2022-09-20T06:34:30.544Z,4.80
2022-09-20T06:37:29.479Z,7.13
2022-09-20T06:40:21.957Z,6.03
2022-09-20T06:42:50.697Z,5.93
2022-09-20T06:45:20.675Z,5.00
2022-09-20T06:47:49.530Z,6.57
2022-09-20T06:50:19.717Z,5.50
2022-09-20T06:52:48.404Z,6.00
2022-09-20T06:55:27.213Z,5.50
2022-09-20T06:57:57.531Z,6.33
2022-09-20T07:00:27.672Z,5.93
2022-09-20T07:02:57.070Z,5.57
2022-09-20T07:05:26.800Z,5.73
2022-09-20T07:07:59.262Z,8.03
2022-09-20T07:10:29.707Z,4.27
2022-09-20T07:12:59.770Z,5.90
2022-09-20T07:15:31.310Z,8.07
2022-09-20T07:18:00.577Z,4.50
2022-09-20T07:20:29.583Z,6.57
2022-09-20T07:22:58.101Z,5.27
2022-09-20T07:25:26.953Z,9.50
2022-09-20T07:27:55.856Z,3.53
2022-09-20T07:30:24.739Z,8.37
2022-09-20T07:32:54.853Z,4.40
2022-09-20T07:35:23.708Z,4.20
2022-09-20T07:37:58.633Z,4.77
2022-09-20T07:40:27.621Z,4.13
2022-09-20T07:42:58.480Z,5.30
2022-09-20T07:45:27.470Z,7.77
2022-09-20T07:47:59.113Z,4.47
2022-09-20T07:50:27.784Z,7.27
2022-09-20T07:52:58.776Z,4.50
2022-09-20T07:55:27.516Z,4.47
2022-09-20T07:57:56.148Z,4.00
2022-09-20T08:00:24.788Z,4.00
2022-09-20T08:03:01.557Z,3.27
2022-09-20T08:05:30.968Z,5.73
2022-09-20T08:08:01.342Z,3.47
2022-09-20T08:10:29.826Z,4.70
2022-09-20T08:15:48.698Z,3.20
2022-09-20T08:18:18.914Z,5.63
2022-09-20T08:20:47.492Z,4.37
2022-09-20T08:23:23.516Z,3.73
2022-09-20T08:25:52.677Z,3.27
2022-09-20T08:28:21.208Z,4.13
2022-09-20T08:30:49.796Z,5.03
2022-09-20T08:33:19.770Z,4.37
2022-09-20T08:35:50.952Z,3.27
2022-09-20T08:41:13.117Z,4.67
2022-09-20T08:43:45.923Z,5.67
2022-09-20T08:46:22.960Z,5.60
2022-09-20T08:48:53.739Z,4.50
2022-09-20T08:51:23.761Z,4.67
2022-09-20T08:53:56.015Z,3.57
2022-09-20T08:56:24.857Z,3.33
2022-09-20T08:58:53.506Z,4.73
2022-09-20T09:01:24.707Z,4.10
2022-09-20T09:03:59.039Z,2.97
2022-09-20T09:06:27.671Z,2.60
2022-09-20T09:08:59.797Z,3.80
2022-09-20T09:11:28.867Z,3.30
2022-09-20T09:14:01.857Z,2.27
2022-09-20T09:16:35.294Z,2.80
2022-09-20T09:19:33.656Z,2.67
2022-09-20T09:22:04.517Z,2.47
2022-09-20T09:24:33.967Z,2.47
2022-09-20T09:27:16.637Z,3.13
2022-09-20T09:29:53.101Z,2.37
2022-09-20T09:32:25.190Z,3.53
2022-09-20T09:34:55.268Z,4.43
2022-09-20T09:37:28.731Z,2.87
2022-09-20T09:40:17.310Z,4.20
2022-09-20T09:42:53.929Z,3.80
2022-09-20T09:45:36.456Z,3.07
2022-09-20T09:48:19.554Z,3.27
2022-09-20T09:50:49.528Z,4.33
2022-09-20T09:53:23.067Z,2.47
2022-09-20T09:56:22.413Z,4.53
2022-09-20T09:59:08.331Z,2.40
2022-09-20T10:01:51.583Z,3.40
2022-09-20T10:04:28.976Z,4.37
2022-09-20T10:07:09.295Z,2.40
2022-09-20T10:10:05.772Z,3.53
2022-09-20T10:12:48.255Z,2.40
2022-09-20T10:15:27.206Z,2.50
2022-09-20T10:18:10.818Z,5.57
2022-09-20T10:20:53.605Z,2.70
2022-09-20T10:26:45.412Z,4.03
2022-09-20T10:29:22.192Z,4.40
2022-09-20T10:32:01.291Z,3.07
2022-09-20T10:34:53.669Z,3.90
2022-09-20T10:37:32.967Z,3.80
2022-09-20T10:40:11.062Z,2.37
2022-09-20T10:43:05.096Z,2.50
2022-09-20T10:46:08.803Z,1.93
2022-09-20T10:48:35.782Z,3.57
2022-09-20T10:51:13.333Z,2.30
2022-09-20T10:53:49.020Z,2.57
2022-09-20T10:56:29.037Z,2.60
2022-09-20T10:59:20.738Z,1.93
2022-09-20T11:02:04.425Z,6.30
2022-09-20T11:05:20.148Z,2.00
2022-09-20T11:08:00.436Z,1.70
2022-09-20T11:10:36.393Z,2.60
2022-09-20T11:13:13.026Z,3.00
2022-09-20T11:15:46.030Z,2.17
2022-09-20T11:18:23.704Z,1.60
2022-09-20T11:21:01.144Z,2.60
2022-09-20T11:23:41.018Z,2.07
2022-09-20T11:26:14.133Z,1.30
2022-09-20T11:28:49.753Z,3.60
2022-09-20T11:31:25.859Z,1.10
2022-09-20T11:34:00.212Z,5.50
2022-09-20T11:36:38.572Z,2.30
2022-09-20T11:39:17.373Z,1.30
2022-09-20T11:41:47.792Z,1.83
2022-09-20T11:44:21.022Z,2.27
2022-09-20T11:46:57.116Z,1.03
2022-09-20T11:49:30.499Z,3.27
2022-09-20T11:52:28.958Z,2.00
2022-09-20T11:55:39.082Z,1.27
2022-09-20T11:58:10.183Z,1.10
2022-09-20T12:00:44.177Z,2.60
2022-09-20T12:03:32.399Z,1.30
2022-09-20T12:06:02.604Z,1.13
2022-09-20T12:08:34.342Z,1.00
2022-09-20T12:11:06.419Z,2.07
2022-09-20T12:13:37.833Z,1.63
2022-09-20T12:16:10.277Z,0.80
2022-09-20T12:18:49.314Z,1.20
2022-09-20T12:21:21.043Z,1.33
2022-09-20T12:24:21.655Z,1.77
2022-09-20T12:26:52.177Z,3.50
2022-09-20T12:30:05.608Z,1.60
2022-09-20T12:32:46.808Z,1.50
2022-09-20T12:35:54.873Z,1.90
2022-09-20T12:38:33.426Z,1.27
2022-09-20T12:41:08.810Z,1.60
2022-09-20T12:43:48.820Z,2.70
2022-09-20T12:46:25.430Z,2.30
2022-09-20T12:49:34.594Z,2.07
2022-09-20T12:52:20.427Z,2.47
2022-09-20T12:54:58.141Z,3.50
2022-09-20T12:57:35.937Z,2.20
2022-09-20T13:00:07.688Z,1.30
2022-09-20T13:03:00.162Z,1.23
2022-09-20T13:05:38.387Z,4.67
2022-09-20T13:08:16.943Z,2.87
2022-09-20T13:10:50.335Z,2.10
2022-09-20T13:13:35.204Z,2.80
2022-09-20T13:16:06.214Z,2.70
2022-09-20T13:18:38.022Z,1.10
2022-09-20T13:21:10.100Z,1.00
2022-09-20T13:23:48.231Z,5.20
2022-09-20T13:26:18.301Z,1.10
2022-09-20T13:28:52.816Z,1.60
2022-09-20T13:31:26.988Z,1.40
2022-09-20T13:33:55.770Z,1.47
2022-09-20T13:36:31.965Z,2.27
2022-09-20T13:39:00.524Z,1.67
2022-09-20T13:41:33.755Z,2.20
2022-09-20T13:44:03.156Z,1.50
2022-09-20T13:46:33.460Z,1.47
2022-09-20T13:49:17.905Z,1.43
2022-09-20T13:51:48.430Z,1.37
2022-09-20T13:54:23.089Z,2.13
2022-09-20T13:56:52.410Z,1.70
2022-09-20T13:59:21.373Z,1.80
2022-09-20T14:01:54.718Z,1.77
2022-09-20T14:04:25.939Z,1.50
2022-09-20T14:06:58.095Z,1.53
2022-09-20T14:09:32.326Z,1.13
2022-09-20T14:12:01.674Z,2.77
2022-09-20T14:14:31.176Z,1.30
2022-09-20T14:17:03.106Z,2.20
2022-09-20T14:19:35.165Z,1.10
2022-09-20T14:22:07.413Z,1.63
2022-09-20T14:24:37.540Z,1.47
2022-09-20T14:27:21.684Z,1.97
2022-09-20T14:29:52.771Z,2.40
2022-09-20T14:32:32.743Z,2.50
2022-09-20T14:35:05.688Z,1.73
2022-09-20T14:37:43.373Z,2.50
2022-09-20T14:40:24.330Z,3.07
2022-09-20T14:42:56.573Z,1.30
2022-09-20T14:45:28.889Z,1.40
2022-09-20T14:48:01.151Z,1.77
2022-09-20T14:50:32.211Z,1.73
2022-09-20T14:53:08.453Z,1.30
2022-09-20T14:55:38.418Z,1.03
2022-09-20T14:58:11.907Z,1.40
2022-09-20T15:00:52.555Z,1.47
2022-09-20T15:03:26.832Z,1.80
2022-09-20T15:05:55.723Z,3.23
2022-09-20T15:08:26.350Z,1.50
2022-09-20T15:10:55.199Z,5.10
2022-09-20T15:13:24.018Z,2.63
2022-09-20T15:15:54.476Z,1.10
2022-09-20T15:18:26.666Z,1.13
2022-09-20T15:20:56.764Z,1.00
2022-09-20T15:23:27.158Z,2.00
2022-09-20T15:25:57.282Z,0.90
2022-09-20T15:28:27.163Z,1.33
2022-09-20T15:30:56.001Z,1.10
2022-09-20T15:33:24.597Z,1.30
2022-09-20T15:35:53.482Z,1.67
2022-09-20T15:38:23.090Z,1.13
2022-09-20T15:40:53.258Z,6.40
2022-09-20T15:43:27.632Z,2.87
2022-09-20T15:46:00.552Z,2.60
2022-09-20T15:48:31.684Z,1.87
2022-09-20T15:51:06.249Z,1.87
2022-09-20T15:53:37.306Z,3.93
2022-09-20T15:56:17.092Z,3.43
2022-09-20T15:58:47.653Z,2.43
2022-09-20T16:01:17.381Z,1.37
2022-09-20T16:03:47.745Z,2.77
2022-09-20T16:06:20.047Z,1.73
2022-09-20T16:08:53.007Z,2.23
2022-09-20T16:11:25.481Z,3.30
2022-09-20T16:13:55.935Z,2.40
2022-09-20T16:16:25.464Z,3.03
2022-09-20T16:19:12.030Z,1.77
2022-09-20T16:21:43.376Z,1.17
2022-09-20T16:24:13.797Z,2.80
2022-09-20T16:26:50.538Z,3.47
2022-09-20T16:29:19.398Z,3.93
2022-09-20T16:31:49.230Z,3.03
2022-09-20T16:34:20.233Z,3.63
2022-09-20T16:36:49.739Z,4.17
2022-09-20T16:39:20.044Z,5.07
2022-09-20T16:41:50.903Z,4.50
2022-09-20T16:44:23.255Z,10.93
2022-09-20T16:46:52.918Z,2.10
2022-09-20T16:49:22.743Z,2.27
2022-09-20T16:51:52.264Z,1.30
2022-09-20T16:54:21.515Z,1.30
2022-09-20T16:56:53.906Z,1.13
2022-09-20T16:59:23.540Z,1.57
2022-09-20T17:01:54.270Z,4.30
2022-09-20T17:04:24.469Z,1.10
2022-09-20T17:06:53.711Z,1.47
2022-09-20T17:09:22.902Z,1.00
2022-09-20T17:11:54.147Z,2.87
2022-09-20T17:14:25.978Z,2.17
2022-09-20T17:16:56.867Z,2.63
2022-09-20T17:19:26.884Z,1.30
2022-09-20T17:21:55.924Z,4.57
2022-09-20T17:24:25.593Z,1.73
2022-09-20T17:26:56.324Z,2.13
2022-09-20T17:29:25.762Z,1.23
2022-09-20T17:32:00.131Z,3.47
2022-09-20T17:34:30.486Z,2.17
2022-09-20T17:37:02.041Z,3.00
2022-09-20T17:39:31.360Z,1.50
2022-09-20T17:42:01.801Z,2.50
2022-09-20T17:44:35.794Z,4.13
2022-09-20T17:47:06.880Z,5.60
2022-09-20T17:49:37.971Z,2.77
2022-09-20T17:52:09.153Z,4.60
2022-09-20T17:54:41.011Z,3.43
2022-09-20T17:57:11.410Z,3.70
2022-09-20T17:59:44.489Z,2.40
2022-09-20T18:02:13.926Z,3.30
2022-09-20T18:04:45.036Z,2.40
2022-09-20T18:07:16.594Z,4.10
2022-09-20T18:09:45.283Z,2.10
2022-09-20T18:12:19.801Z,2.83
2022-09-20T18:14:50.027Z,2.00
2022-09-20T18:17:18.572Z,1.87
2022-09-20T18:19:49.649Z,3.83
2022-09-20T18:22:26.664Z,2.03
2022-09-20T18:25:00.303Z,2.27
2022-09-20T18:27:31.959Z,1.83
2022-09-20T18:30:04.534Z,2.50
2022-09-20T18:32:37.408Z,1.50
2022-09-20T18:35:07.453Z,2.23
2022-09-20T18:37:38.332Z,3.60
2022-09-20T18:40:11.940Z,2.10
2022-09-20T18:42:42.483Z,2.17
2022-09-20T18:45:13.747Z,1.67
2022-09-20T18:47:43.283Z,1.93
2022-09-20T18:50:12.698Z,4.07
2022-09-20T18:52:45.936Z,2.00
2022-09-20T18:55:15.356Z,1.57
2022-09-20T18:57:47.336Z,2.17
2022-09-20T19:00:18.405Z,2.67
2022-09-20T19:03:10.015Z,3.77
2022-09-20T19:05:45.791Z,1.50
2022-09-20T19:08:27.555Z,1.87
2022-09-20T19:11:05.113Z,3.43
2022-09-20T19:13:46.056Z,3.83
2022-09-20T19:16:21.663Z,3.73
2022-09-20T19:19:32.776Z,2.30
2022-09-20T19:22:18.561Z,2.60
2022-09-20T19:25:18.245Z,2.83
2022-09-20T19:27:48.206Z,1.70
2022-09-20T19:30:19.953Z,1.77
2022-09-20T19:32:49.776Z,2.27
2022-09-20T19:35:23.960Z,2.80
2022-09-20T19:38:05.850Z,2.57
2022-09-20T19:40:50.339Z,1.67
2022-09-20T19:43:39.589Z,2.23
2022-09-20T19:46:32.078Z,2.03
2022-09-20T19:49:09.429Z,4.50
2022-09-20T19:51:44.678Z,3.80
2022-09-20T19:54:15.514Z,3.27
2022-09-20T19:56:55.253Z,2.00
2022-09-20T19:59:28.484Z,3.23
2022-09-20T20:02:00.211Z,1.90
2022-09-20T20:04:29.823Z,6.13
2022-09-20T20:07:07.717Z,5.57
2022-09-20T20:09:42.954Z,3.33
2022-09-20T20:12:25.552Z,157.43
2022-09-20T20:15:02.269Z,251.37
2022-09-20T20:17:46.575Z,295.37
2022-09-20T20:20:24.746Z,519.67
2022-09-20T20:23:08.928Z,21.63
2022-09-20T20:25:48.102Z,182.87
2022-09-20T20:28:16.814Z,451.73
2022-09-20T20:30:45.727Z,317.43
2022-09-20T20:33:19.458Z,351.07
2022-09-20T20:35:56.171Z,65.50
2022-09-20T20:38:26.534Z,8.83
2022-09-20T20:41:04.835Z,6.83
2022-09-20T20:43:34.972Z,8.47
2022-09-20T20:46:04.110Z,3.37
2022-09-20T20:48:35.421Z,4.27
2022-09-20T20:51:05.606Z,2.07
2022-09-20T20:53:35.545Z,6.70
2022-09-20T20:56:07.792Z,4.87
2022-09-20T20:58:38.145Z,4.00
2022-09-20T21:01:12.182Z,5.93
2022-09-20T21:03:44.647Z,4.27
2022-09-20T21:06:14.814Z,2.77
2022-09-20T21:08:49.074Z,2.47
2022-09-20T21:11:22.138Z,3.93
2022-09-20T21:13:51.066Z,3.47
2022-09-20T21:16:21.742Z,3.33
2022-09-20T21:18:52.743Z,5.73
2022-09-20T21:21:27.955Z,2.50
2022-09-20T21:23:58.703Z,2.60
2022-09-20T21:26:32.166Z,3.40
2022-09-20T21:29:02.348Z,4.23
2022-09-20T21:31:33.007Z,3.80
2022-09-20T21:34:03.352Z,2.67
2022-09-20T21:36:32.416Z,5.47
2022-09-20T21:39:01.019Z,3.00
2022-09-20T21:41:31.193Z,4.40
2022-09-20T21:44:02.539Z,4.17
2022-09-20T21:46:33.504Z,5.87
2022-09-20T21:49:05.468Z,2.63
2022-09-20T21:51:35.080Z,3.57
2022-09-20T21:54:04.163Z,4.00
2022-09-20T21:56:34.486Z,3.27
2022-09-20T21:59:04.595Z,5.10
2022-09-20T22:01:35.148Z,2.90
2022-09-20T22:04:09.001Z,3.37
2022-09-20T22:06:39.179Z,4.47
2022-09-20T22:09:09.567Z,3.63
2022-09-20T22:11:41.107Z,6.00
2022-09-20T22:14:10.624Z,3.13
2022-09-20T22:16:41.626Z,3.17
2022-09-20T22:19:13.539Z,4.77
2022-09-20T22:21:43.771Z,2.93
2022-09-20T22:24:13.750Z,2.77
2022-09-20T22:26:44.034Z,3.40
2022-09-20T22:29:13.028Z,3.37
2022-09-20T22:31:45.670Z,3.07
2022-09-20T22:34:18.398Z,4.63
2022-09-20T22:36:47.781Z,3.90
2022-09-20T22:39:17.282Z,3.20
2022-09-20T22:41:48.159Z,3.40
2022-09-20T22:44:17.067Z,5.00
2022-09-20T22:46:45.576Z,3.27
2022-09-20T22:49:15.710Z,2.27
2022-09-20T22:51:44.383Z,3.83
2022-09-20T22:54:13.878Z,5.30
2022-09-20T22:56:42.719Z,5.77
2022-09-20T22:59:12.899Z,5.27
2022-09-20T23:01:43.007Z,5.13
2022-09-20T23:04:13.618Z,4.60
2022-09-20T23:06:44.956Z,4.40
2022-09-20T23:09:15.130Z,3.97
2022-09-20T23:11:44.245Z,3.40
2022-09-20T23:14:15.294Z,5.33
2022-09-20T23:16:44.356Z,3.10
2022-09-20T23:19:14.011Z,3.67
2022-09-20T23:21:45.179Z,3.27
2022-09-20T23:24:17.190Z,3.10
2022-09-20T23:26:46.562Z,3.37
2022-09-20T23:29:16.402Z,3.70
2022-09-20T23:31:47.454Z,6.03
2022-09-20T23:34:16.908Z,3.00
2022-09-20T23:36:47.587Z,4.33
2022-09-20T23:39:16.561Z,2.53
2022-09-20T23:41:50.110Z,3.73
2022-09-20T23:44:19.485Z,4.63
2022-09-20T23:46:47.955Z,4.30
2022-09-20T23:49:16.453Z,6.27
2022-09-20T23:51:44.818Z,3.57
2022-09-20T23:54:14.714Z,4.10
2022-09-20T23:56:43.694Z,2.60
2022-09-20T23:59:12.328Z,8.27
